Time;durP1;ratioP1;P1;durP2;ratioP2;P2;SDS_P1;SDS_P2;PMS_P1;PMS_P2;Temp;Humidity;BMP_temperature;BMP_pressure;BME280_temperature;BME280_humidity;BME280_pressure;Samples;Min_cycle;Max_cycle;Signal;HPM_P1;HPM_P2
2021/08/28 00:01:34;;;;;;;22.17;2.17;;;;;;;;;;5002910;28;20043;-58
2021/08/28 00:04:01;;;;;;;23.83;2.15;;;;;;;;;;5004179;28;20029;-55
2021/08/28 00:06:28;;;;;;;23.27;2.50;;;;;;;;;;4991029;28;20073;-63
2021/08/28 00:08:55;;;;;;;32.20;2.65;;;;;;;;;;4992785;28;20389;-60
2021/08/28 00:11:22;;;;;;;19.15;1.85;;;;;;;;;;4991703;28;20441;-56
2021/08/28 00:13:49;;;;;;;12.63;2.08;;;;;;;;;;4992923;28;20076;-58
2021/08/28 00:16:16;;;;;;;19.38;2.28;;;;;;;;;;4995347;28;20501;-56
2021/08/28 00:18:43;;;;;;;19.20;2.95;;;;;;;;;;5005614;28;20022;-56
2021/08/28 00:21:14;;;;;;;32.00;3.25;;;;;;;;;;4998698;28;20018;-57
2021/08/28 00:23:42;;;;;;;27.83;2.55;;;;;;;;;;5000195;28;20045;-53
2021/08/28 00:26:09;;;;;;;24.98;2.92;;;;;;;;;;4998818;28;20368;-53
2021/08/28 00:28:38;;;;;;;25.10;2.30;;;;;;;;;;5003972;28;20018;-55
2021/08/28 00:31:05;;;;;;;30.13;3.00;;;;;;;;;;5002479;28;20080;-57
2021/08/28 00:33:32;;;;;;;22.27;3.60;;;;;;;;;;5007246;28;20022;-60
2021/08/28 00:35:59;;;;;;;30.73;3.85;;;;;;;;;;5019102;28;20022;-61
2021/08/28 00:38:26;;;;;;;34.28;4.20;;;;;;;;;;5016738;28;20026;-57
2021/08/28 00:40:56;;;;;;;33.72;4.82;;;;;;;;;;5018371;28;20018;-60
2021/08/28 00:43:26;;;;;;;32.53;5.28;;;;;;;;;;5018531;28;20037;-61
2021/08/28 00:45:53;;;;;;;36.33;5.47;;;;;;;;;;5018302;28;20124;-60
2021/08/28 00:48:20;;;;;;;36.05;6.15;;;;;;;;;;5018800;28;20028;-60
2021/08/28 00:50:47;;;;;;;32.30;7.05;;;;;;;;;;5018349;28;20383;-59
2021/08/28 00:53:16;;;;;;;42.30;6.13;;;;;;;;;;5016643;28;20061;-61
2021/08/28 00:55:47;;;;;;;35.00;6.63;;;;;;;;;;5017754;28;20377;-61
2021/08/28 00:58:14;;;;;;;31.30;6.25;;;;;;;;;;5017271;28;20029;-61
2021/08/28 01:00:46;;;;;;;36.63;6.13;;;;;;;;;;5016742;28;20071;-61
2021/08/28 01:03:14;;;;;;;33.80;4.70;;;;;;;;;;5015010;28;20018;-58
2021/08/28 01:05:41;;;;;;;29.38;5.63;;;;;;;;;;5005482;28;20596;-56
2021/08/28 01:08:11;;;;;;;39.95;5.45;;;;;;;;;;4997025;28;20046;-55
2021/08/28 01:10:40;;;;;;;35.58;5.22;;;;;;;;;;5004466;28;20023;-51
2021/08/28 01:13:09;;;;;;;52.05;6.05;;;;;;;;;;5002021;28;20030;-58
2021/08/28 01:15:37;;;;;;;34.05;5.07;;;;;;;;;;5004870;28;20113;-58
2021/08/28 01:18:05;;;;;;;32.20;4.43;;;;;;;;;;5002154;28;20080;-57
2021/08/28 01:20:32;;;;;;;39.60;5.20;;;;;;;;;;5001919;28;20026;-55
2021/08/28 01:22:59;;;;;;;33.67;4.38;;;;;;;;;;5002844;28;20040;-58
2021/08/28 01:25:27;;;;;;;34.13;5.20;;;;;;;;;;5007900;28;20674;-56
2021/08/28 01:28:02;;;;;;;37.20;5.03;;;;;;;;;;5008276;28;20046;-56
2021/08/28 01:30:29;;;;;;;29.15;4.35;;;;;;;;;;5007621;28;20104;-58
2021/08/28 01:32:57;;;;;;;32.42;4.80;;;;;;;;;;5010502;28;20512;-55
2021/08/28 01:35:25;;;;;;;23.95;4.03;;;;;;;;;;5005038;28;20026;-53
2021/08/28 01:37:54;;;;;;;27.45;3.97;;;;;;;;;;5005197;28;20022;-55
2021/08/28 01:40:21;;;;;;;28.27;4.15;;;;;;;;;;5012107;28;20041;-50
2021/08/28 01:42:49;;;;;;;29.27;4.47;;;;;;;;;;5007442;28;20018;-50
2021/08/28 01:45:17;;;;;;;24.80;3.95;;;;;;;;;;5009339;28;20045;-52
2021/08/28 01:47:45;;;;;;;25.88;4.07;;;;;;;;;;5007722;28;20022;-50
2021/08/28 01:50:15;;;;;;;19.00;3.80;;;;;;;;;;5008273;28;20038;-50
2021/08/28 01:52:43;;;;;;;19.38;3.90;;;;;;;;;;5008160;28;20026;-49
2021/08/28 01:55:10;;;;;;;25.98;4.05;;;;;;;;;;5003976;28;20060;-53
2021/08/28 01:57:38;;;;;;;20.60;3.90;;;;;;;;;;5007013;28;20072;-53
2021/08/28 02:00:06;;;;;;;18.05;3.58;;;;;;;;;;5005238;28;20037;-53
2021/08/28 02:02:33;;;;;;;19.33;3.92;;;;;;;;;;5008749;28;20097;-49
2021/08/28 02:05:01;;;;;;;23.23;4.35;;;;;;;;;;4999792;28;20080;-56
2021/08/28 02:07:40;;;;;;;16.33;3.63;;;;;;;;;;5008307;28;20109;-49
2021/08/28 02:10:14;;;;;;;20.00;4.05;;;;;;;;;;5005541;28;20022;-47
2021/08/28 02:12:43;;;;;;;20.52;3.63;;;;;;;;;;5007363;28;20026;-52
2021/08/28 02:15:10;;;;;;;18.40;3.30;;;;;;;;;;5001868;28;20045;-48
2021/08/28 02:17:42;;;;;;;18.90;3.13;;;;;;;;;;5006529;28;20026;-52
2021/08/28 02:20:10;;;;;;;23.52;3.65;;;;;;;;;;5009668;28;20556;-53
2021/08/28 02:22:43;;;;;;;20.10;2.80;;;;;;;;;;5006330;28;20026;-51
2021/08/28 02:25:20;;;;;;;14.70;3.17;;;;;;;;;;5010989;28;20038;-53
2021/08/28 02:27:50;;;;;;;19.98;3.40;;;;;;;;;;5007191;28;20057;-53
2021/08/28 02:30:19;;;;;;;16.63;2.97;;;;;;;;;;4996427;28;20489;-57
2021/08/28 02:32:50;;;;;;;10.90;2.78;;;;;;;;;;4992436;28;20543;-53
2021/08/28 02:35:18;;;;;;;19.55;2.72;;;;;;;;;;4997856;28;20116;-50
2021/08/28 02:37:48;;;;;;;16.60;2.75;;;;;;;;;;4996946;28;20029;-53
2021/08/28 02:40:17;;;;;;;13.80;2.85;;;;;;;;;;4994597;28;20026;-51
2021/08/28 02:42:45;;;;;;;18.75;3.45;;;;;;;;;;5001566;28;20042;-53
2021/08/28 02:45:18;;;;;;;23.38;2.90;;;;;;;;;;5009717;28;20034;-50
2021/08/28 02:47:46;;;;;;;20.88;2.50;;;;;;;;;;5009862;28;20022;-56
2021/08/28 02:50:14;;;;;;;14.60;3.08;;;;;;;;;;5008952;28;20060;-57
2021/08/28 02:52:42;;;;;;;10.13;2.63;;;;;;;;;;5007262;28;20354;-45
2021/08/28 02:55:11;;;;;;;13.88;2.60;;;;;;;;;;4996475;28;20045;-55
2021/08/28 02:57:40;;;;;;;19.67;2.78;;;;;;;;;;5008540;28;20018;-48
2021/08/28 03:00:07;;;;;;;28.23;3.20;;;;;;;;;;5009751;28;20029;-56
2021/08/28 03:02:34;;;;;;;15.57;2.88;;;;;;;;;;5010710;28;20295;-57
2021/08/28 03:05:02;;;;;;;17.80;2.78;;;;;;;;;;5010923;28;20037;-56
2021/08/28 03:07:29;;;;;;;13.50;2.45;;;;;;;;;;5010747;28;20061;-56
2021/08/28 03:09:56;;;;;;;20.90;2.50;;;;;;;;;;5010349;28;20018;-57
2021/08/28 03:12:23;;;;;;;10.38;2.60;;;;;;;;;;5010733;28;20030;-56
2021/08/28 03:14:52;;;;;;;14.10;2.90;;;;;;;;;;5011941;28;20018;-56
2021/08/28 03:17:19;;;;;;;21.67;2.78;;;;;;;;;;5011734;28;20385;-57
2021/08/28 03:19:47;;;;;;;9.77;1.95;;;;;;;;;;5011828;28;20029;-54
2021/08/28 03:22:16;;;;;;;10.45;2.10;;;;;;;;;;5011823;28;20014;-54
2021/08/28 03:24:44;;;;;;;13.05;2.60;;;;;;;;;;5011649;28;20485;-56
2021/08/28 03:27:12;;;;;;;10.15;2.00;;;;;;;;;;5011791;28;20503;-54
2021/08/28 03:29:39;;;;;;;16.75;2.22;;;;;;;;;;5011681;28;20513;-57
2021/08/28 03:32:07;;;;;;;11.32;2.00;;;;;;;;;;5011157;28;20041;-56
2021/08/28 03:34:34;;;;;;;10.60;2.08;;;;;;;;;;5011944;28;20017;-56
2021/08/28 03:37:02;;;;;;;7.25;1.63;;;;;;;;;;5011820;28;20022;-56
2021/08/28 03:39:30;;;;;;;14.55;2.00;;;;;;;;;;5011428;28;20022;-57
2021/08/28 03:41:57;;;;;;;13.02;2.08;;;;;;;;;;5011745;28;20030;-58
2021/08/28 03:44:24;;;;;;;15.73;2.35;;;;;;;;;;5011518;28;20385;-55
2021/08/28 03:46:51;;;;;;;10.88;1.92;;;;;;;;;;5011925;28;20030;-56
2021/08/28 03:49:18;;;;;;;9.50;1.88;;;;;;;;;;5011336;28;20022;-56
2021/08/28 03:51:46;;;;;;;10.10;1.98;;;;;;;;;;5012028;28;20054;-56
2021/08/28 03:54:13;;;;;;;9.00;1.60;;;;;;;;;;5015174;28;20022;-55
2021/08/28 03:56:40;;;;;;;4.70;1.35;;;;;;;;;;5014275;28;20483;-56
2021/08/28 03:59:07;;;;;;;12.45;2.95;;;;;;;;;;5015194;28;20091;-55
2021/08/28 04:01:34;;;;;;;8.18;1.80;;;;;;;;;;5015357;28;20080;-55
2021/08/28 04:04:01;;;;;;;8.48;1.73;;;;;;;;;;5013704;28;20480;-56
2021/08/28 04:06:28;;;;;;;7.95;1.67;;;;;;;;;;5015117;28;20084;-56
2021/08/28 04:08:55;;;;;;;9.30;1.88;;;;;;;;;;5014853;28;20048;-56
2021/08/28 04:11:22;;;;;;;13.00;2.65;;;;;;;;;;5015132;28;20517;-56
2021/08/28 04:13:49;;;;;;;5.10;1.58;;;;;;;;;;5015116;28;20116;-56
2021/08/28 04:16:16;;;;;;;4.82;1.48;;;;;;;;;;5014847;28;20029;-56
2021/08/28 04:18:43;;;;;;;10.55;1.50;;;;;;;;;;5014827;28;20029;-56
2021/08/28 04:21:10;;;;;;;5.25;1.73;;;;;;;;;;5014744;28;20033;-55
2021/08/28 04:23:37;;;;;;;8.00;1.42;;;;;;;;;;5014609;28;20032;-56
2021/08/28 04:26:04;;;;;;;4.25;1.38;;;;;;;;;;5000770;28;20026;-56
2021/08/28 04:28:31;;;;;;;10.13;1.80;;;;;;;;;;5014507;28;20112;-54
2021/08/28 04:30:58;;;;;;;6.90;2.17;;;;;;;;;;5014912;28;20033;-55
2021/08/28 04:33:25;;;;;;;6.20;1.67;;;;;;;;;;5014546;28;20024;-56
2021/08/28 04:35:52;;;;;;;8.13;1.40;;;;;;;;;;5014302;28;20061;-56
2021/08/28 04:38:19;;;;;;;6.40;2.10;;;;;;;;;;5014500;28;20085;-56
2021/08/28 04:40:46;;;;;;;6.47;1.60;;;;;;;;;;5012746;28;20457;-55
2021/08/28 04:43:13;;;;;;;8.50;1.65;;;;;;;;;;5014572;28;20068;-55
2021/08/28 04:45:40;;;;;;;11.30;1.90;;;;;;;;;;5014376;28;20115;-53
2021/08/28 04:48:07;;;;;;;7.68;1.80;;;;;;;;;;5014025;28;20536;-56
2021/08/28 04:50:34;;;;;;;7.25;1.63;;;;;;;;;;5014369;28;20500;-57
2021/08/28 04:53:01;;;;;;;7.10;1.73;;;;;;;;;;5014056;28;20104;-56
2021/08/28 04:55:29;;;;;;;6.80;1.52;;;;;;;;;;5014169;28;20025;-52
2021/08/28 04:57:56;;;;;;;4.97;1.67;;;;;;;;;;5013580;28;20076;-55
2021/08/28 05:00:23;;;;;;;6.75;1.30;;;;;;;;;;5013667;28;20109;-56
2021/08/28 05:02:50;;;;;;;5.43;1.55;;;;;;;;;;5012734;28;20014;-52
2021/08/28 05:05:17;;;;;;;7.68;1.90;;;;;;;;;;5014023;28;20034;-56
2021/08/28 05:07:45;;;;;;;6.45;1.65;;;;;;;;;;5014037;28;20692;-56
2021/08/28 05:10:12;;;;;;;6.43;1.60;;;;;;;;;;5013934;28;20080;-49
2021/08/28 05:12:39;;;;;;;8.30;1.65;;;;;;;;;;5013671;28;20068;-56
2021/08/28 05:15:06;;;;;;;6.53;1.63;;;;;;;;;;5014009;28;20087;-52
2021/08/28 05:17:33;;;;;;;7.97;1.52;;;;;;;;;;5013650;28;20022;-56
2021/08/28 05:20:00;;;;;;;5.22;1.40;;;;;;;;;;5013771;28;20381;-55
2021/08/28 05:22:27;;;;;;;11.00;1.50;;;;;;;;;;5013434;28;20061;-55
2021/08/28 05:24:54;;;;;;;9.77;1.38;;;;;;;;;;5013513;28;20029;-55
2021/08/28 05:27:21;;;;;;;5.50;1.35;;;;;;;;;;5013296;28;20034;-55
2021/08/28 05:29:48;;;;;;;5.43;1.55;;;;;;;;;;5013549;28;20398;-56
2021/08/28 05:32:15;;;;;;;8.10;1.13;;;;;;;;;;5013288;28;20473;-55
2021/08/28 05:34:42;;;;;;;4.57;1.45;;;;;;;;;;5013308;28;20028;-52
2021/08/28 05:37:09;;;;;;;7.88;1.30;;;;;;;;;;5013241;28;20029;-56
2021/08/28 05:39:36;;;;;;;5.53;1.40;;;;;;;;;;5013301;28;20014;-56
2021/08/28 05:42:03;;;;;;;5.60;1.45;;;;;;;;;;5013472;28;20025;-56
2021/08/28 05:44:31;;;;;;;6.00;1.40;;;;;;;;;;5013167;28;20057;-53
2021/08/28 05:46:58;;;;;;;7.03;1.42;;;;;;;;;;5013554;28;20488;-54
2021/08/28 05:49:25;;;;;;;5.65;1.17;;;;;;;;;;5013108;28;20470;-54
2021/08/28 05:51:52;;;;;;;4.78;1.20;;;;;;;;;;5012865;28;20026;-53
2021/08/28 05:54:19;;;;;;;3.08;1.20;;;;;;;;;;5013401;28;20088;-55
2021/08/28 05:56:46;;;;;;;6.18;1.58;;;;;;;;;;5013217;28;20355;-56
2021/08/28 05:59:13;;;;;;;6.10;1.30;;;;;;;;;;5012029;28;20068;-54
2021/08/28 06:01:40;;;;;;;4.28;1.20;;;;;;;;;;5013197;28;20037;-55
2021/08/28 06:04:07;;;;;;;2.97;1.00;;;;;;;;;;5012621;28;20041;-55
2021/08/28 06:06:33;;;;;;;7.75;1.17;;;;;;;;;;5010985;28;20032;-56
2021/08/28 06:09:01;;;;;;;4.30;1.80;;;;;;;;;;5012593;28;20033;-53
2021/08/28 06:11:28;;;;;;;6.72;1.55;;;;;;;;;;5012359;28;20056;-55
2021/08/28 06:13:55;;;;;;;4.32;1.63;;;;;;;;;;5012224;28;20593;-54
2021/08/28 06:16:22;;;;;;;5.18;1.08;;;;;;;;;;5012711;28;20088;-55
2021/08/28 06:18:49;;;;;;;7.68;1.83;;;;;;;;;;5011164;28;20049;-55
2021/08/28 06:21:19;;;;;;;4.43;1.30;;;;;;;;;;5012581;28;20022;-56
2021/08/28 06:23:46;;;;;;;4.10;1.50;;;;;;;;;;5012460;28;20108;-56
2021/08/28 06:26:13;;;;;;;3.45;1.50;;;;;;;;;;5012205;28;20037;-55
2021/08/28 06:28:40;;;;;;;4.65;1.23;;;;;;;;;;5012371;28;20385;-56
2021/08/28 06:31:07;;;;;;;7.30;1.40;;;;;;;;;;5011246;28;20121;-55
2021/08/28 06:33:34;;;;;;;5.43;1.52;;;;;;;;;;5011279;28;20071;-56
2021/08/28 06:36:01;;;;;;;4.05;1.33;;;;;;;;;;5011972;28;20030;-56
2021/08/28 06:38:28;;;;;;;6.35;1.45;;;;;;;;;;5012556;28;20029;-55
2021/08/28 06:40:55;;;;;;;5.45;1.50;;;;;;;;;;5010938;28;20041;-55
2021/08/28 06:43:22;;;;;;;7.05;1.75;;;;;;;;;;5012217;28;20018;-56
2021/08/28 06:45:49;;;;;;;6.00;1.40;;;;;;;;;;5012194;28;20042;-55
2021/08/28 06:48:16;;;;;;;3.45;1.55;;;;;;;;;;5012128;28;20069;-54
2021/08/28 06:50:43;;;;;;;4.22;1.42;;;;;;;;;;5011699;28;20080;-56
2021/08/28 06:53:10;;;;;;;6.55;1.83;;;;;;;;;;5012110;28;20390;-55
2021/08/28 06:55:37;;;;;;;3.97;1.60;;;;;;;;;;5011839;28;20026;-54
2021/08/28 06:58:04;;;;;;;5.20;1.85;;;;;;;;;;5012008;28;20109;-56
2021/08/28 07:00:31;;;;;;;6.53;1.80;;;;;;;;;;5011961;28;20022;-56
2021/08/28 07:02:58;;;;;;;3.20;1.60;;;;;;;;;;5011632;28;20054;-53
2021/08/28 07:05:25;;;;;;;4.22;1.77;;;;;;;;;;5011676;28;20421;-54
2021/08/28 07:07:52;;;;;;;6.82;1.65;;;;;;;;;;5010741;28;20355;-52
2021/08/28 07:10:20;;;;;;;5.90;1.80;;;;;;;;;;5011570;28;20083;-55
2021/08/28 07:12:47;;;;;;;5.82;1.88;;;;;;;;;;5011894;28;20113;-56
2021/08/28 07:15:14;;;;;;;4.50;1.73;;;;;;;;;;5011661;28;20030;-55
2021/08/28 07:17:40;;;;;;;3.33;1.60;;;;;;;;;;5011828;28;20034;-55
2021/08/28 07:20:08;;;;;;;5.50;1.67;;;;;;;;;;5011416;28;20026;-55
2021/08/28 07:22:35;;;;;;;8.25;2.15;;;;;;;;;;5011792;28;20025;-56
2021/08/28 07:25:02;;;;;;;6.35;2.00;;;;;;;;;;5011863;28;20061;-55
2021/08/28 07:27:29;;;;;;;6.97;1.90;;;;;;;;;;5014512;28;20014;-56
2021/08/28 07:29:56;;;;;;;3.67;1.70;;;;;;;;;;5015635;28;20073;-56
2021/08/28 07:32:23;;;;;;;4.75;2.10;;;;;;;;;;5015737;28;20046;-56
2021/08/28 07:34:54;;;;;;;6.25;1.98;;;;;;;;;;5015443;28;20014;-56
2021/08/28 07:37:22;;;;;;;7.05;2.15;;;;;;;;;;5015452;28;20448;-56
2021/08/28 07:39:49;;;;;;;9.40;2.40;;;;;;;;;;5015727;28;20014;-56
2021/08/28 07:42:17;;;;;;;5.18;2.00;;;;;;;;;;5015681;28;20030;-55
2021/08/28 07:44:45;;;;;;;4.63;2.03;;;;;;;;;;5015329;28;20048;-55
2021/08/28 07:47:12;;;;;;;7.13;1.92;;;;;;;;;;5015506;28;20026;-55
2021/08/28 07:49:39;;;;;;;5.18;2.00;;;;;;;;;;5015281;28;20740;-56
2021/08/28 07:52:07;;;;;;;3.05;1.73;;;;;;;;;;5015375;28;20473;-56
2021/08/28 07:54:34;;;;;;;4.78;2.00;;;;;;;;;;5015404;28;20034;-56
2021/08/28 07:57:01;;;;;;;6.10;2.17;;;;;;;;;;5015475;28;20026;-56
2021/08/28 07:59:28;;;;;;;4.47;1.90;;;;;;;;;;5015125;28;20026;-55
2021/08/28 08:01:55;;;;;;;3.65;1.90;;;;;;;;;;5015136;28;20022;-55
2021/08/28 08:04:22;;;;;;;7.35;2.30;;;;;;;;;;5014722;28;20022;-55
2021/08/28 08:06:49;;;;;;;7.20;2.35;;;;;;;;;;5015119;28;20022;-55
2021/08/28 08:09:16;;;;;;;8.13;2.00;;;;;;;;;;5015033;28;20126;-55
2021/08/28 08:11:43;;;;;;;7.43;2.28;;;;;;;;;;5014974;28;20025;-55
2021/08/28 08:14:10;;;;;;;10.27;2.40;;;;;;;;;;5014756;28;20118;-55
2021/08/28 08:16:37;;;;;;;7.68;2.45;;;;;;;;;;5014937;28;20022;-56
2021/08/28 08:19:04;;;;;;;7.03;2.40;;;;;;;;;;5014706;28;20030;-54
2021/08/28 08:21:31;;;;;;;6.43;1.98;;;;;;;;;;5014825;28;20115;-56
2021/08/28 08:23:58;;;;;;;4.75;2.03;;;;;;;;;;5013344;28;20136;-52
2021/08/28 08:26:26;;;;;;;4.68;2.13;;;;;;;;;;5014749;28;20065;-53
2021/08/28 08:28:54;;;;;;;4.68;2.10;;;;;;;;;;5014311;28;20046;-55
2021/08/28 08:31:29;;;;;;;5.97;2.22;;;;;;;;;;5014484;28;20044;-55
2021/08/28 08:33:56;;;;;;;7.45;2.33;;;;;;;;;;5014976;28;20598;-56
2021/08/28 08:36:23;;;;;;;4.70;2.25;;;;;;;;;;5014473;28;20030;-56
2021/08/28 08:38:50;;;;;;;7.22;2.40;;;;;;;;;;5014180;28;20018;-56
2021/08/28 08:41:18;;;;;;;3.55;2.15;;;;;;;;;;5014436;28;20072;-55
2021/08/28 08:43:47;;;;;;;4.47;2.08;;;;;;;;;;5014466;28;20010;-56
2021/08/28 08:46:14;;;;;;;7.63;2.30;;;;;;;;;;5014024;28;20037;-55
2021/08/28 08:48:41;;;;;;;5.00;2.58;;;;;;;;;;5012979;28;20498;-56
2021/08/28 08:51:08;;;;;;;7.30;2.58;;;;;;;;;;5014324;28;20030;-56
2021/08/28 08:53:36;;;;;;;9.57;2.65;;;;;;;;;;5012985;28;20018;-56
2021/08/28 08:56:04;;;;;;;5.25;2.47;;;;;;;;;;5014362;28;20018;-56
2021/08/28 08:58:31;;;;;;;7.78;2.42;;;;;;;;;;5014121;28;20026;-55
2021/08/28 09:00:58;;;;;;;6.00;2.42;;;;;;;;;;5014069;28;20441;-56
2021/08/28 09:03:25;;;;;;;7.80;2.85;;;;;;;;;;5014430;28;20022;-56
2021/08/28 09:05:52;;;;;;;8.18;2.72;;;;;;;;;;5013978;28;20030;-55
2021/08/28 09:08:19;;;;;;;8.07;2.38;;;;;;;;;;5014204;28;20029;-55
2021/08/28 09:10:46;;;;;;;5.95;2.47;;;;;;;;;;5014069;28;20025;-56
2021/08/28 09:13:15;;;;;;;8.77;2.78;;;;;;;;;;5014059;28;20026;-56
2021/08/28 09:15:54;;;;;;;11.48;2.70;;;;;;;;;;5013748;28;20037;-56
2021/08/28 09:18:21;;;;;;;6.65;3.10;;;;;;;;;;5013849;28;20129;-56
2021/08/28 09:20:49;;;;;;;8.82;2.55;;;;;;;;;;5013904;28;20486;-56
2021/08/28 09:23:17;;;;;;;5.88;2.50;;;;;;;;;;5013878;28;20493;-56
2021/08/28 09:25:45;;;;;;;6.15;2.50;;;;;;;;;;5013476;28;20390;-55
2021/08/28 09:28:12;;;;;;;8.30;2.85;;;;;;;;;;5013294;28;20045;-54
2021/08/28 09:30:42;;;;;;;4.47;2.35;;;;;;;;;;5013352;28;20077;-54
2021/08/28 09:33:10;;;;;;;7.18;3.00;;;;;;;;;;5013342;28;20034;-55
2021/08/28 09:35:41;;;;;;;6.70;2.30;;;;;;;;;;5013268;28;20101;-56
2021/08/28 09:38:10;;;;;;;7.85;2.50;;;;;;;;;;5013351;28;20159;-56
2021/08/28 09:40:38;;;;;;;7.72;3.00;;;;;;;;;;5013122;28;20030;-55
2021/08/28 09:43:06;;;;;;;8.93;2.50;;;;;;;;;;5013194;28;20105;-56
2021/08/28 09:45:35;;;;;;;10.85;2.67;;;;;;;;;;5013246;28;20034;-56
2021/08/28 09:48:02;;;;;;;5.07;2.78;;;;;;;;;;5013326;28;20022;-55
2021/08/28 09:50:34;;;;;;;6.18;2.70;;;;;;;;;;5012311;28;20022;-56
2021/08/28 09:53:06;;;;;;;4.47;2.33;;;;;;;;;;5013265;28;20088;-55
2021/08/28 09:55:34;;;;;;;8.48;2.97;;;;;;;;;;5012934;28;20030;-56
2021/08/28 09:58:01;;;;;;;8.15;2.90;;;;;;;;;;5013037;28;20037;-56
2021/08/28 10:00:30;;;;;;;5.75;2.20;;;;;;;;;;5012778;28;20026;-56
2021/08/28 10:03:06;;;;;;;6.40;2.70;;;;;;;;;;5011973;28;20053;-56
2021/08/28 10:05:34;;;;;;;6.03;3.00;;;;;;;;;;5012766;28;20080;-55
2021/08/28 10:08:02;;;;;;;6.93;2.70;;;;;;;;;;5012732;28;20018;-55
2021/08/28 10:10:30;;;;;;;7.57;3.20;;;;;;;;;;5012477;28;20265;-56
2021/08/28 10:12:58;;;;;;;6.28;2.72;;;;;;;;;;5011663;28;20018;-55
2021/08/28 10:15:25;;;;;;;7.22;2.88;;;;;;;;;;5012619;28;20493;-56
2021/08/28 10:17:53;;;;;;;8.23;2.80;;;;;;;;;;5012821;28;20033;-56
2021/08/28 10:20:21;;;;;;;6.40;2.88;;;;;;;;;;5012656;28;20057;-53
2021/08/28 10:22:50;;;;;;;11.60;3.55;;;;;;;;;;5012450;28;20033;-56
2021/08/28 10:25:18;;;;;;;5.78;2.63;;;;;;;;;;5012438;28;20053;-51
2021/08/28 10:27:46;;;;;;;6.65;2.50;;;;;;;;;;5012715;28;20469;-56
2021/08/28 10:30:13;;;;;;;5.85;2.70;;;;;;;;;;5010956;28;20048;-55
2021/08/28 10:32:41;;;;;;;7.32;2.72;;;;;;;;;;5012408;28;20021;-55
2021/08/28 10:35:09;;;;;;;7.88;2.60;;;;;;;;;;5012507;28;20021;-56
2021/08/28 10:37:36;;;;;;;4.25;2.25;;;;;;;;;;5012630;28;20033;-55
2021/08/28 10:40:06;;;;;;;7.60;2.38;;;;;;;;;;5012187;28;20033;-55
2021/08/28 10:42:34;;;;;;;7.05;3.00;;;;;;;;;;5011969;28;20541;-55
2021/08/28 10:45:02;;;;;;;6.18;2.63;;;;;;;;;;5012202;28;20718;-50
2021/08/28 10:47:31;;;;;;;5.63;2.70;;;;;;;;;;5012043;28;20496;-54
2021/08/28 10:50:02;;;;;;;7.45;2.72;;;;;;;;;;5011474;28;20034;-55
2021/08/28 10:52:29;;;;;;;5.85;2.88;;;;;;;;;;5012013;28;20026;-55
2021/08/28 10:54:58;;;;;;;6.57;2.38;;;;;;;;;;5012158;28;20050;-56
2021/08/28 10:57:28;;;;;;;7.13;2.80;;;;;;;;;;5011931;28;20030;-55
2021/08/28 11:00:09;;;;;;;7.10;2.65;;;;;;;;;;5010854;28;20169;-56
2021/08/28 11:02:51;;;;;;;6.13;2.78;;;;;;;;;;4998968;28;20033;-55
2021/08/28 11:05:19;;;;;;;7.53;2.80;;;;;;;;;;5011698;28;20034;-53
2021/08/28 11:07:46;;;;;;;6.43;2.95;;;;;;;;;;5011977;28;20470;-56
2021/08/28 11:10:18;;;;;;;9.88;3.00;;;;;;;;;;5011661;28;20025;-56
2021/08/28 11:12:48;;;;;;;7.97;2.95;;;;;;;;;;5011983;28;20497;-50
2021/08/28 11:15:34;;;;;;;11.13;2.97;;;;;;;;;;5011532;28;20080;-56
2021/08/28 11:18:27;;;;;;;4.95;2.78;;;;;;;;;;5011960;28;20105;-55
2021/08/28 11:21:05;;;;;;;7.65;3.08;;;;;;;;;;4996473;28;20112;-51
2021/08/28 11:23:37;;;;;;;8.77;3.20;;;;;;;;;;5011739;28;20025;-53
2021/08/28 11:26:04;;;;;;;8.45;2.83;;;;;;;;;;5011480;28;20112;-55
2021/08/28 11:28:38;;;;;;;8.23;3.03;;;;;;;;;;5011582;28;20056;-55
2021/08/28 11:31:05;;;;;;;11.65;3.50;;;;;;;;;;5011576;28;20030;-53
2021/08/28 11:33:33;;;;;;;10.77;3.80;;;;;;;;;;5011887;28;20523;-56
2021/08/28 11:36:03;;;;;;;14.55;3.35;;;;;;;;;;5011611;28;20057;-56
2021/08/28 11:38:41;;;;;;;12.75;3.83;;;;;;;;;;5011581;28;20038;-56
2021/08/28 11:41:12;;;;;;;13.35;3.45;;;;;;;;;;5011480;28;20033;-56
2021/08/28 11:43:41;;;;;;;15.65;4.10;;;;;;;;;;5011760;28;20041;-56
2021/08/28 11:46:12;;;;;;;14.32;3.60;;;;;;;;;;5011417;28;20044;-56
2021/08/28 11:48:42;;;;;;;20.77;4.30;;;;;;;;;;5011588;28;20018;-56
2021/08/28 11:51:15;;;;;;;14.30;3.67;;;;;;;;;;5011453;28;20052;-56
2021/08/28 11:53:42;;;;;;;25.05;4.10;;;;;;;;;;5011630;28;20029;-56
2021/08/28 11:56:11;;;;;;;15.60;3.35;;;;;;;;;;5010842;28;20096;-56
2021/08/28 11:58:57;;;;;;;16.10;3.45;;;;;;;;;;5011314;28;20112;-52
2021/08/28 12:01:41;;;;;;;32.83;4.80;;;;;;;;;;5010815;28;20036;-55
2021/08/28 12:04:09;;;;;;;21.67;4.43;;;;;;;;;;5011329;28;20068;-56
2021/08/28 12:06:37;;;;;;;16.63;4.25;;;;;;;;;;5011394;28;20026;-56
2021/08/28 12:09:06;;;;;;;19.92;4.07;;;;;;;;;;5011369;28;20021;-56
2021/08/28 12:11:33;;;;;;;18.23;4.05;;;;;;;;;;5011144;28;20033;-55
2021/08/28 12:14:01;;;;;;;23.77;4.00;;;;;;;;;;5014693;28;20018;-52
2021/08/28 12:16:28;;;;;;;18.60;4.57;;;;;;;;;;5014927;28;20026;-56
2021/08/28 12:19:04;;;;;;;15.73;4.15;;;;;;;;;;5014423;28;20036;-54
2021/08/28 12:21:32;;;;;;;17.17;3.80;;;;;;;;;;5014647;28;20068;-55
2021/08/28 12:24:11;;;;;;;15.23;4.28;;;;;;;;;;5014853;28;20509;-56
2021/08/28 12:26:38;;;;;;;25.10;4.45;;;;;;;;;;5014619;28;20040;-57
2021/08/28 12:29:05;;;;;;;15.48;3.80;;;;;;;;;;5013188;28;20367;-55
2021/08/28 12:31:32;;;;;;;11.73;3.83;;;;;;;;;;5014208;28;20041;-56
2021/08/28 12:34:04;;;;;;;19.45;4.13;;;;;;;;;;5014359;28;20496;-56
2021/08/28 12:36:32;;;;;;;22.77;4.57;;;;;;;;;;5014529;28;20106;-57
2021/08/28 12:39:04;;;;;;;17.48;4.00;;;;;;;;;;5014228;28;20116;-56
2021/08/28 12:41:31;;;;;;;14.88;3.47;;;;;;;;;;5013430;28;20041;-55
2021/08/28 12:43:59;;;;;;;16.88;4.57;;;;;;;;;;5013422;28;20018;-54
2021/08/28 12:46:28;;;;;;;18.73;4.35;;;;;;;;;;5008351;28;20108;-51
2021/08/28 12:49:11;;;;;;;21.67;4.80;;;;;;;;;;5001714;28;20037;-51
2021/08/28 12:51:47;;;;;;;16.90;4.22;;;;;;;;;;4998556;28;20030;-52
2021/08/28 12:54:21;;;;;;;21.30;4.50;;;;;;;;;;5012885;28;20057;-48
2021/08/28 12:56:49;;;;;;;19.33;4.88;;;;;;;;;;4999972;28;20053;-48
2021/08/28 12:59:20;;;;;;;24.17;4.25;;;;;;;;;;5012979;28;20104;-53
2021/08/28 13:01:52;;;;;;;16.67;4.05;;;;;;;;;;5006876;28;20022;-47
2021/08/28 13:04:20;;;;;;;27.65;4.60;;;;;;;;;;5011090;28;20026;-52
2021/08/28 13:07:05;;;;;;;17.35;4.22;;;;;;;;;;5011479;28;20048;-52
2021/08/28 13:09:32;;;;;;;24.58;5.30;;;;;;;;;;5009215;28;20110;-50
2021/08/28 13:11:59;;;;;;;16.52;4.72;;;;;;;;;;5013191;28;20026;-49
2021/08/28 13:14:26;;;;;;;26.10;3.97;;;;;;;;;;5005190;28;20030;-48
2021/08/28 13:16:55;;;;;;;15.10;4.40;;;;;;;;;;4995786;28;20470;-51
2021/08/28 13:19:22;;;;;;;16.73;4.03;;;;;;;;;;5002222;28;20025;-49
2021/08/28 13:21:56;;;;;;;15.93;4.20;;;;;;;;;;5007876;28;20113;-51
2021/08/28 13:24:24;;;;;;;16.17;4.10;;;;;;;;;;5007559;28;20033;-51
2021/08/28 13:27:22;;;;;;;14.75;4.28;;;;;;;;;;5008121;28;20487;-51
2021/08/28 13:29:49;;;;;;;18.85;4.10;;;;;;;;;;4986533;28;20593;-49
2021/08/28 13:32:18;;;;;;;19.23;4.50;;;;;;;;;;5013394;28;20026;-49
2021/08/28 13:34:51;;;;;;;15.98;4.47;;;;;;;;;;5012825;28;20026;-47
2021/08/28 13:37:19;;;;;;;26.02;3.97;;;;;;;;;;5013210;28;20413;-50
2021/08/28 13:39:47;;;;;;;16.92;4.38;;;;;;;;;;5013007;28;20030;-50
2021/08/28 13:42:24;;;;;;;14.73;4.22;;;;;;;;;;5011739;28;20028;-49
2021/08/28 13:44:51;;;;;;;16.00;3.88;;;;;;;;;;5012705;28;20037;-52
2021/08/28 13:47:19;;;;;;;17.52;3.67;;;;;;;;;;5012319;28;20032;-48
2021/08/28 13:49:46;;;;;;;12.50;3.60;;;;;;;;;;5012785;28;20025;-49
2021/08/28 13:52:16;;;;;;;13.40;3.92;;;;;;;;;;5012202;28;20053;-50
2021/08/28 13:54:43;;;;;;;13.20;3.75;;;;;;;;;;5012493;28;20100;-52
2021/08/28 13:57:10;;;;;;;22.85;4.25;;;;;;;;;;5011052;28;20034;-52
2021/08/28 13:59:37;;;;;;;14.45;4.00;;;;;;;;;;5009602;28;20400;-52
2021/08/28 14:02:04;;;;;;;19.75;4.13;;;;;;;;;;5005591;28;20390;-49
2021/08/28 14:04:32;;;;;;;11.48;4.18;;;;;;;;;;5011061;28;20028;-50
2021/08/28 14:06:59;;;;;;;10.60;4.00;;;;;;;;;;5011936;28;20367;-51
2021/08/28 14:09:26;;;;;;;14.50;3.72;;;;;;;;;;5011538;28;20068;-50
2021/08/28 14:11:53;;;;;;;13.27;3.90;;;;;;;;;;5002482;28;20520;-49
2021/08/28 14:14:21;;;;;;;17.10;3.85;;;;;;;;;;5007740;28;20038;-49
2021/08/28 14:16:48;;;;;;;26.77;3.83;;;;;;;;;;5011836;28;20054;-48
2021/08/28 14:19:15;;;;;;;19.85;4.45;;;;;;;;;;5011363;28;20038;-49
2021/08/28 14:21:42;;;;;;;17.45;4.60;;;;;;;;;;4997389;28;20031;-51
2021/08/28 14:24:09;;;;;;;21.95;5.47;;;;;;;;;;5000681;28;20033;-49
2021/08/28 14:26:36;;;;;;;14.43;3.90;;;;;;;;;;5011707;28;20034;-47
2021/08/28 14:29:03;;;;;;;13.98;3.55;;;;;;;;;;5011289;28;20105;-48
2021/08/28 14:31:31;;;;;;;19.88;3.88;;;;;;;;;;5011899;28;20038;-47
2021/08/28 14:33:58;;;;;;;16.20;4.22;;;;;;;;;;5010389;28;20026;-61
2021/08/28 14:36:26;;;;;;;23.20;4.60;;;;;;;;;;5010365;28;20026;-60
2021/08/28 14:38:53;;;;;;;15.00;4.00;;;;;;;;;;5010397;28;20129;-59
2021/08/28 14:41:20;;;;;;;14.98;4.05;;;;;;;;;;5010875;28;20033;-61
2021/08/28 14:43:47;;;;;;;13.13;3.65;;;;;;;;;;5010797;28;20072;-59